sensor_id;sensor_type;location;lat;lon;timestamp;P1;durP1;ratioP1;P2;durP2;ratioP2
65533;SDS011;53640;55.838;37.184;2022-08-01T00:01:16;3.08;;;2.10;;
65533;SDS011;53640;55.838;37.184;2022-08-01T00:03:43;2.65;;;2.00;;
65533;SDS011;53640;55.838;37.184;2022-08-01T00:06:09;2.05;;;1.70;;
65533;SDS011;53640;55.838;37.184;2022-08-01T00:08:35;6.25;;;2.47;;
65533;SDS011;53640;55.838;37.184;2022-08-01T00:11:02;4.10;;;2.00;;
65533;SDS011;53640;55.838;37.184;2022-08-01T00:13:28;3.17;;;2.13;;
65533;SDS011;53640;55.838;37.184;2022-08-01T00:15:54;4.07;;;2.58;;
65533;SDS011;53640;55.838;37.184;2022-08-01T00:18:21;5.45;;;3.08;;
65533;SDS011;53640;55.838;37.184;2022-08-01T00:20:47;4.45;;;2.60;;
65533;SDS011;53640;55.838;37.184;2022-08-01T00:23:13;4.20;;;2.63;;
65533;SDS011;53640;55.838;37.184;2022-08-01T00:25:40;2.88;;;2.60;;
65533;SDS011;53640;55.838;37.184;2022-08-01T00:28:06;3.97;;;2.33;;
65533;SDS011;53640;55.838;37.184;2022-08-01T00:30:35;9.10;;;3.47;;
65533;SDS011;53640;55.838;37.184;2022-08-01T00:33:02;4.93;;;3.00;;
65533;SDS011;53640;55.838;37.184;2022-08-01T00:35:28;7.10;;;3.10;;
65533;SDS011;53640;55.838;37.184;2022-08-01T00:37:55;7.25;;;3.13;;
65533;SDS011;53640;55.838;37.184;2022-08-01T00:40:21;8.07;;;3.03;;
65533;SDS011;53640;55.838;37.184;2022-08-01T00:42:47;7.60;;;3.35;;
65533;SDS011;53640;55.838;37.184;2022-08-01T00:45:14;7.15;;;3.70;;
65533;SDS011;53640;55.838;37.184;2022-08-01T00:47:40;8.70;;;3.75;;
65533;SDS011;53640;55.838;37.184;2022-08-01T00:50:06;7.15;;;3.33;;
65533;SDS011;53640;55.838;37.184;2022-08-01T00:52:33;6.80;;;2.95;;
65533;SDS011;53640;55.838;37.184;2022-08-01T00:55:00;8.95;;;3.30;;
65533;SDS011;53640;55.838;37.184;2022-08-01T00:57:26;5.05;;;2.58;;
65533;SDS011;53640;55.838;37.184;2022-08-01T00:59:54;9.77;;;3.60;;
65533;SDS011;53640;55.838;37.184;2022-08-01T01:02:20;7.22;;;3.30;;
65533;SDS011;53640;55.838;37.184;2022-08-01T01:04:46;6.10;;;3.00;;
65533;SDS011;53640;55.838;37.184;2022-08-01T01:07:17;6.15;;;3.55;;
65533;SDS011;53640;55.838;37.184;2022-08-01T01:09:58;7.57;;;3.50;;
65533;SDS011;53640;55.838;37.184;2022-08-01T01:12:35;9.35;;;3.42;;
65533;SDS011;53640;55.838;37.184;2022-08-01T01:15:10;8.18;;;3.40;;
65533;SDS011;53640;55.838;37.184;2022-08-01T01:17:44;7.22;;;3.45;;
65533;SDS011;53640;55.838;37.184;2022-08-01T01:20:18;5.03;;;2.90;;
65533;SDS011;53640;55.838;37.184;2022-08-01T01:30:35;12.63;;;3.25;;
65533;SDS011;53640;55.838;37.184;2022-08-01T01:33:05;6.97;;;3.15;;
65533;SDS011;53640;55.838;37.184;2022-08-01T01:35:36;8.65;;;3.63;;
65533;SDS011;53640;55.838;37.184;2022-08-01T01:38:09;5.30;;;3.20;;
65533;SDS011;53640;55.838;37.184;2022-08-01T01:40:41;5.38;;;3.30;;
65533;SDS011;53640;55.838;37.184;2022-08-01T01:43:09;5.43;;;3.40;;
65533;SDS011;53640;55.838;37.184;2022-08-01T01:45:37;8.27;;;3.58;;
65533;SDS011;53640;55.838;37.184;2022-08-01T01:48:06;7.13;;;2.90;;
65533;SDS011;53640;55.838;37.184;2022-08-01T01:50:35;5.25;;;2.85;;
65533;SDS011;53640;55.838;37.184;2022-08-01T01:53:02;9.45;;;3.35;;
65533;SDS011;53640;55.838;37.184;2022-08-01T01:55:30;7.97;;;3.22;;
65533;SDS011;53640;55.838;37.184;2022-08-01T01:57:58;7.05;;;3.47;;
65533;SDS011;53640;55.838;37.184;2022-08-01T02:00:26;8.15;;;3.28;;
65533;SDS011;53640;55.838;37.184;2022-08-01T02:02:55;4.70;;;2.50;;
65533;SDS011;53640;55.838;37.184;2022-08-01T02:05:22;5.78;;;3.47;;
65533;SDS011;53640;55.838;37.184;2022-08-01T02:07:49;7.15;;;3.90;;
65533;SDS011;53640;55.838;37.184;2022-08-01T02:10:18;8.23;;;3.70;;
65533;SDS011;53640;55.838;37.184;2022-08-01T02:12:45;10.73;;;3.72;;
65533;SDS011;53640;55.838;37.184;2022-08-01T02:15:15;6.38;;;2.63;;
65533;SDS011;53640;55.838;37.184;2022-08-01T02:17:46;9.23;;;3.25;;
65533;SDS011;53640;55.838;37.184;2022-08-01T02:20:14;9.02;;;3.40;;
65533;SDS011;53640;55.838;37.184;2022-08-01T02:22:44;13.57;;;4.20;;
65533;SDS011;53640;55.838;37.184;2022-08-01T02:25:24;9.87;;;3.40;;
65533;SDS011;53640;55.838;37.184;2022-08-01T02:28:09;4.30;;;3.30;;
65533;SDS011;53640;55.838;37.184;2022-08-01T02:30:41;10.77;;;3.65;;
65533;SDS011;53640;55.838;37.184;2022-08-01T02:33:23;11.10;;;4.38;;
65533;SDS011;53640;55.838;37.184;2022-08-01T02:36:12;8.35;;;3.60;;
65533;SDS011;53640;55.838;37.184;2022-08-01T02:38:42;11.30;;;3.60;;
65533;SDS011;53640;55.838;37.184;2022-08-01T02:41:11;11.32;;;3.67;;
65533;SDS011;53640;55.838;37.184;2022-08-01T02:46:13;6.63;;;3.30;;
65533;SDS011;53640;55.838;37.184;2022-08-01T02:48:45;11.35;;;3.65;;
65533;SDS011;53640;55.838;37.184;2022-08-01T02:51:13;8.98;;;3.45;;
65533;SDS011;53640;55.838;37.184;2022-08-01T02:53:41;9.88;;;3.40;;
65533;SDS011;53640;55.838;37.184;2022-08-01T02:56:09;5.82;;;3.20;;
65533;SDS011;53640;55.838;37.184;2022-08-01T02:58:37;5.97;;;3.20;;
65533;SDS011;53640;55.838;37.184;2022-08-01T03:01:05;10.15;;;3.33;;
65533;SDS011;53640;55.838;37.184;2022-08-01T03:03:33;5.25;;;3.00;;
65533;SDS011;53640;55.838;37.184;2022-08-01T03:06:01;5.05;;;3.17;;
65533;SDS011;53640;55.838;37.184;2022-08-01T03:08:29;8.63;;;3.47;;
65533;SDS011;53640;55.838;37.184;2022-08-01T03:10:57;6.10;;;2.97;;
65533;SDS011;53640;55.838;37.184;2022-08-01T03:13:25;10.45;;;3.17;;
65533;SDS011;53640;55.838;37.184;2022-08-01T03:15:55;7.00;;;3.05;;
65533;SDS011;53640;55.838;37.184;2022-08-01T03:18:23;9.02;;;3.30;;
65533;SDS011;53640;55.838;37.184;2022-08-01T03:20:52;6.95;;;3.55;;
65533;SDS011;53640;55.838;37.184;2022-08-01T03:23:20;6.28;;;3.10;;
65533;SDS011;53640;55.838;37.184;2022-08-01T03:25:48;8.05;;;3.30;;
65533;SDS011;53640;55.838;37.184;2022-08-01T03:28:17;11.35;;;3.50;;
65533;SDS011;53640;55.838;37.184;2022-08-01T03:30:45;5.35;;;3.67;;
65533;SDS011;53640;55.838;37.184;2022-08-01T03:33:13;7.55;;;3.30;;
65533;SDS011;53640;55.838;37.184;2022-08-01T03:35:42;8.00;;;3.20;;
65533;SDS011;53640;55.838;37.184;2022-08-01T03:38:13;8.73;;;3.30;;
65533;SDS011;53640;55.838;37.184;2022-08-01T03:40:49;8.68;;;2.90;;
65533;SDS011;53640;55.838;37.184;2022-08-01T03:43:22;4.60;;;3.10;;
65533;SDS011;53640;55.838;37.184;2022-08-01T03:45:55;5.88;;;2.58;;
65533;SDS011;53640;55.838;37.184;2022-08-01T03:48:27;4.15;;;2.60;;
65533;SDS011;53640;55.838;37.184;2022-08-01T03:50:55;5.68;;;2.53;;
65533;SDS011;53640;55.838;37.184;2022-08-01T03:53:25;2.78;;;2.00;;
65533;SDS011;53640;55.838;37.184;2022-08-01T03:55:54;3.60;;;2.30;;
65533;SDS011;53640;55.838;37.184;2022-08-01T03:58:21;2.67;;;2.30;;
65533;SDS011;53640;55.838;37.184;2022-08-01T04:00:48;4.97;;;2.25;;
65533;SDS011;53640;55.838;37.184;2022-08-01T04:03:15;2.53;;;2.03;;
65533;SDS011;53640;55.838;37.184;2022-08-01T04:05:43;1.40;;;1.30;;
65533;SDS011;53640;55.838;37.184;2022-08-01T04:08:09;1.05;;;1.05;;
65533;SDS011;53640;55.838;37.184;2022-08-01T04:10:36;3.75;;;1.50;;
65533;SDS011;53640;55.838;37.184;2022-08-01T04:13:03;1.25;;;1.15;;
65533;SDS011;53640;55.838;37.184;2022-08-01T04:15:29;1.27;;;1.10;;
65533;SDS011;53640;55.838;37.184;2022-08-01T04:17:55;1.65;;;1.55;;
65533;SDS011;53640;55.838;37.184;2022-08-01T04:20:22;2.63;;;1.60;;
65533;SDS011;53640;55.838;37.184;2022-08-01T04:22:48;3.88;;;1.90;;
65533;SDS011;53640;55.838;37.184;2022-08-01T04:25:33;1.52;;;1.42;;
65533;SDS011;53640;55.838;37.184;2022-08-01T04:28:02;1.67;;;1.58;;
65533;SDS011;53640;55.838;37.184;2022-08-01T04:30:33;1.43;;;1.30;;
65533;SDS011;53640;55.838;37.184;2022-08-01T04:33:02;2.85;;;1.52;;
65533;SDS011;53640;55.838;37.184;2022-08-01T04:35:32;1.67;;;1.27;;
65533;SDS011;53640;55.838;37.184;2022-08-01T04:37:59;1.83;;;1.52;;
65533;SDS011;53640;55.838;37.184;2022-08-01T04:40:28;3.60;;;1.70;;
65533;SDS011;53640;55.838;37.184;2022-08-01T04:42:56;1.45;;;1.30;;
65533;SDS011;53640;55.838;37.184;2022-08-01T04:45:23;3.70;;;1.83;;
65533;SDS011;53640;55.838;37.184;2022-08-01T04:47:50;2.95;;;1.95;;
65533;SDS011;53640;55.838;37.184;2022-08-01T04:50:17;1.58;;;1.48;;
65533;SDS011;53640;55.838;37.184;2022-08-01T04:52:47;3.33;;;1.77;;
65533;SDS011;53640;55.838;37.184;2022-08-01T04:55:14;3.17;;;1.88;;
65533;SDS011;53640;55.838;37.184;2022-08-01T04:57:41;3.17;;;1.60;;
65533;SDS011;53640;55.838;37.184;2022-08-01T05:00:10;1.52;;;1.42;;
65533;SDS011;53640;55.838;37.184;2022-08-01T05:02:37;2.92;;;1.42;;
65533;SDS011;53640;55.838;37.184;2022-08-01T05:05:04;2.40;;;1.52;;
65533;SDS011;53640;55.838;37.184;2022-08-01T05:07:32;4.68;;;2.00;;
65533;SDS011;53640;55.838;37.184;2022-08-01T05:09:59;4.35;;;2.55;;
65533;SDS011;53640;55.838;37.184;2022-08-01T05:12:27;2.70;;;1.60;;
65533;SDS011;53640;55.838;37.184;2022-08-01T05:14:53;2.53;;;1.52;;
65533;SDS011;53640;55.838;37.184;2022-08-01T05:17:19;8.57;;;2.28;;
65533;SDS011;53640;55.838;37.184;2022-08-01T05:19:45;2.45;;;1.55;;
65533;SDS011;53640;55.838;37.184;2022-08-01T05:22:12;2.03;;;1.50;;
65533;SDS011;53640;55.838;37.184;2022-08-01T05:24:39;3.00;;;1.80;;
65533;SDS011;53640;55.838;37.184;2022-08-01T05:27:06;2.80;;;1.38;;
65533;SDS011;53640;55.838;37.184;2022-08-01T05:29:36;6.13;;;2.47;;
65533;SDS011;53640;55.838;37.184;2022-08-01T05:32:02;3.22;;;2.00;;
65533;SDS011;53640;55.838;37.184;2022-08-01T05:34:29;6.97;;;2.10;;
65533;SDS011;53640;55.838;37.184;2022-08-01T05:36:55;5.07;;;2.10;;
65533;SDS011;53640;55.838;37.184;2022-08-01T05:39:21;3.30;;;2.10;;
65533;SDS011;53640;55.838;37.184;2022-08-01T05:41:48;5.55;;;2.10;;
65533;SDS011;53640;55.838;37.184;2022-08-01T05:44:14;2.67;;;2.00;;
65533;SDS011;53640;55.838;37.184;2022-08-01T05:46:40;5.63;;;2.20;;
65533;SDS011;53640;55.838;37.184;2022-08-01T05:49:06;5.63;;;2.13;;
65533;SDS011;53640;55.838;37.184;2022-08-01T05:51:33;4.15;;;1.83;;
65533;SDS011;53640;55.838;37.184;2022-08-01T05:53:59;2.30;;;1.70;;
65533;SDS011;53640;55.838;37.184;2022-08-01T05:56:26;2.20;;;1.80;;
65533;SDS011;53640;55.838;37.184;2022-08-01T05:58:52;1.67;;;1.52;;
65533;SDS011;53640;55.838;37.184;2022-08-01T06:01:19;2.65;;;2.03;;
65533;SDS011;53640;55.838;37.184;2022-08-01T06:03:45;3.15;;;1.75;;
65533;SDS011;53640;55.838;37.184;2022-08-01T06:06:12;3.03;;;1.90;;
65533;SDS011;53640;55.838;37.184;2022-08-01T06:08:40;4.55;;;1.88;;
65533;SDS011;53640;55.838;37.184;2022-08-01T06:11:06;4.93;;;1.83;;
65533;SDS011;53640;55.838;37.184;2022-08-01T06:13:33;3.15;;;1.42;;
65533;SDS011;53640;55.838;37.184;2022-08-01T06:15:59;1.92;;;1.73;;
65533;SDS011;53640;55.838;37.184;2022-08-01T06:18:25;1.55;;;1.35;;
65533;SDS011;53640;55.838;37.184;2022-08-01T06:20:52;4.55;;;2.40;;
65533;SDS011;53640;55.838;37.184;2022-08-01T06:23:19;3.08;;;1.60;;
65533;SDS011;53640;55.838;37.184;2022-08-01T06:25:46;3.42;;;1.55;;
65533;SDS011;53640;55.838;37.184;2022-08-01T06:28:13;4.55;;;1.40;;
65533;SDS011;53640;55.838;37.184;2022-08-01T06:30:39;2.08;;;1.25;;
65533;SDS011;53640;55.838;37.184;2022-08-01T06:33:05;2.70;;;1.60;;
65533;SDS011;53640;55.838;37.184;2022-08-01T06:35:32;3.13;;;1.58;;
65533;SDS011;53640;55.838;37.184;2022-08-01T06:37:58;1.60;;;1.33;;
65533;SDS011;53640;55.838;37.184;2022-08-01T06:40:24;1.23;;;1.13;;
65533;SDS011;53640;55.838;37.184;2022-08-01T06:42:51;2.17;;;1.30;;
65533;SDS011;53640;55.838;37.184;2022-08-01T06:45:17;2.13;;;1.48;;
65533;SDS011;53640;55.838;37.184;2022-08-01T06:47:44;3.38;;;1.30;;
65533;SDS011;53640;55.838;37.184;2022-08-01T06:50:10;3.83;;;1.60;;
65533;SDS011;53640;55.838;37.184;2022-08-01T06:52:37;1.42;;;1.33;;
65533;SDS011;53640;55.838;37.184;2022-08-01T06:55:03;4.75;;;1.77;;
65533;SDS011;53640;55.838;37.184;2022-08-01T06:57:30;1.55;;;1.40;;
65533;SDS011;53640;55.838;37.184;2022-08-01T06:59:57;2.60;;;1.50;;
65533;SDS011;53640;55.838;37.184;2022-08-01T07:02:23;8.05;;;2.00;;
65533;SDS011;53640;55.838;37.184;2022-08-01T07:04:50;4.55;;;1.55;;
65533;SDS011;53640;55.838;37.184;2022-08-01T07:07:16;1.75;;;1.20;;
65533;SDS011;53640;55.838;37.184;2022-08-01T07:09:42;1.33;;;1.13;;
65533;SDS011;53640;55.838;37.184;2022-08-01T07:12:09;1.95;;;1.20;;
65533;SDS011;53640;55.838;37.184;2022-08-01T07:14:36;15.18;;;1.83;;
65533;SDS011;53640;55.838;37.184;2022-08-01T07:17:03;1.85;;;1.38;;
65533;SDS011;53640;55.838;37.184;2022-08-01T07:19:29;3.05;;;1.10;;
65533;SDS011;53640;55.838;37.184;2022-08-01T07:21:55;1.30;;;1.20;;
65533;SDS011;53640;55.838;37.184;2022-08-01T07:24:21;2.47;;;1.40;;
65533;SDS011;53640;55.838;37.184;2022-08-01T07:26:48;5.63;;;1.40;;
65533;SDS011;53640;55.838;37.184;2022-08-01T07:29:14;3.35;;;1.42;;
65533;SDS011;53640;55.838;37.184;2022-08-01T07:31:41;1.30;;;1.17;;
65533;SDS011;53640;55.838;37.184;2022-08-01T07:34:07;3.00;;;1.60;;
65533;SDS011;53640;55.838;37.184;2022-08-01T07:36:33;1.92;;;1.02;;
65533;SDS011;53640;55.838;37.184;2022-08-01T07:39:00;1.20;;;1.10;;
65533;SDS011;53640;55.838;37.184;2022-08-01T07:41:26;2.47;;;1.40;;
65533;SDS011;53640;55.838;37.184;2022-08-01T07:43:53;9.65;;;1.60;;
65533;SDS011;53640;55.838;37.184;2022-08-01T07:46:19;4.20;;;1.70;;
65533;SDS011;53640;55.838;37.184;2022-08-01T07:48:46;1.98;;;1.38;;
65533;SDS011;53640;55.838;37.184;2022-08-01T07:51:12;5.32;;;1.75;;
65533;SDS011;53640;55.838;37.184;2022-08-01T07:53:38;3.60;;;1.52;;
65533;SDS011;53640;55.838;37.184;2022-08-01T07:56:05;1.83;;;1.45;;
65533;SDS011;53640;55.838;37.184;2022-08-01T07:58:32;2.38;;;1.30;;
65533;SDS011;53640;55.838;37.184;2022-08-01T08:00:59;9.70;;;2.45;;
65533;SDS011;53640;55.838;37.184;2022-08-01T08:03:25;1.60;;;1.50;;
65533;SDS011;53640;55.838;37.184;2022-08-01T08:05:52;3.47;;;1.27;;
65533;SDS011;53640;55.838;37.184;2022-08-01T08:08:18;4.32;;;1.90;;
65533;SDS011;53640;55.838;37.184;2022-08-01T08:10:45;6.28;;;2.08;;
65533;SDS011;53640;55.838;37.184;2022-08-01T08:13:11;2.45;;;1.50;;
65533;SDS011;53640;55.838;37.184;2022-08-01T08:15:37;3.42;;;1.73;;
65533;SDS011;53640;55.838;37.184;2022-08-01T08:18:04;6.60;;;2.00;;
65533;SDS011;53640;55.838;37.184;2022-08-01T08:20:31;5.63;;;1.92;;
65533;SDS011;53640;55.838;37.184;2022-08-01T08:22:57;2.80;;;1.80;;
65533;SDS011;53640;55.838;37.184;2022-08-01T08:25:25;3.45;;;1.80;;
65533;SDS011;53640;55.838;37.184;2022-08-01T08:27:51;2.67;;;1.63;;
65533;SDS011;53640;55.838;37.184;2022-08-01T08:30:18;2.28;;;1.60;;
65533;SDS011;53640;55.838;37.184;2022-08-01T08:32:45;2.13;;;1.33;;
65533;SDS011;53640;55.838;37.184;2022-08-01T08:35:11;2.88;;;1.35;;
65533;SDS011;53640;55.838;37.184;2022-08-01T08:37:38;1.63;;;1.52;;
65533;SDS011;53640;55.838;37.184;2022-08-01T08:40:04;3.53;;;1.63;;
65533;SDS011;53640;55.838;37.184;2022-08-01T08:42:32;3.50;;;1.40;;
65533;SDS011;53640;55.838;37.184;2022-08-01T08:44:59;2.83;;;1.40;;
65533;SDS011;53640;55.838;37.184;2022-08-01T08:47:25;6.88;;;1.60;;
65533;SDS011;53640;55.838;37.184;2022-08-01T08:49:54;1.70;;;1.60;;
65533;SDS011;53640;55.838;37.184;2022-08-01T08:52:22;1.67;;;1.58;;
65533;SDS011;53640;55.838;37.184;2022-08-01T08:54:49;1.80;;;1.40;;
65533;SDS011;53640;55.838;37.184;2022-08-01T08:57:18;2.67;;;1.50;;
65533;SDS011;53640;55.838;37.184;2022-08-01T08:59:46;3.63;;;1.42;;
65533;SDS011;53640;55.838;37.184;2022-08-01T09:02:12;2.13;;;1.85;;
65533;SDS011;53640;55.838;37.184;2022-08-01T09:04:39;2.70;;;1.67;;
65533;SDS011;53640;55.838;37.184;2022-08-01T09:07:06;3.28;;;1.73;;
65533;SDS011;53640;55.838;37.184;2022-08-01T09:09:33;3.30;;;1.67;;
65533;SDS011;53640;55.838;37.184;2022-08-01T09:12:00;5.55;;;2.00;;
65533;SDS011;53640;55.838;37.184;2022-08-01T09:14:27;12.70;;;2.15;;
65533;SDS011;53640;55.838;37.184;2022-08-01T09:17:00;8.50;;;1.90;;
65533;SDS011;53640;55.838;37.184;2022-08-01T09:19:38;3.33;;;1.60;;
65533;SDS011;53640;55.838;37.184;2022-08-01T09:22:08;1.20;;;1.17;;
65533;SDS011;53640;55.838;37.184;2022-08-01T09:24:36;2.47;;;1.52;;
65533;SDS011;53640;55.838;37.184;2022-08-01T09:27:14;1.60;;;1.50;;
65533;SDS011;53640;55.838;37.184;2022-08-01T09:29:45;1.52;;;1.40;;
65533;SDS011;53640;55.838;37.184;2022-08-01T09:32:11;1.70;;;1.48;;
65533;SDS011;53640;55.838;37.184;2022-08-01T09:34:38;1.13;;;1.13;;
65533;SDS011;53640;55.838;37.184;2022-08-01T09:37:04;1.08;;;1.05;;
65533;SDS011;53640;55.838;37.184;2022-08-01T09:39:32;2.08;;;1.20;;
65533;SDS011;53640;55.838;37.184;2022-08-01T09:42:18;2.08;;;1.70;;
65533;SDS011;53640;55.838;37.184;2022-08-01T09:44:49;5.68;;;1.55;;
65533;SDS011;53640;55.838;37.184;2022-08-01T09:47:16;3.08;;;1.80;;
65533;SDS011;53640;55.838;37.184;2022-08-01T09:49:52;2.65;;;1.58;;
65533;SDS011;53640;55.838;37.184;2022-08-01T09:52:20;1.92;;;1.25;;
65533;SDS011;53640;55.838;37.184;2022-08-01T09:54:56;2.63;;;1.35;;
65533;SDS011;53640;55.838;37.184;2022-08-01T09:57:24;1.52;;;1.40;;
65533;SDS011;53640;55.838;37.184;2022-08-01T09:59:53;1.60;;;1.45;;
65533;SDS011;53640;55.838;37.184;2022-08-01T10:02:34;1.40;;;1.30;;
65533;SDS011;53640;55.838;37.184;2022-08-01T10:05:03;2.95;;;1.80;;
65533;SDS011;53640;55.838;37.184;2022-08-01T10:07:31;1.58;;;1.30;;
65533;SDS011;53640;55.838;37.184;2022-08-01T10:10:14;2.58;;;1.60;;
65533;SDS011;53640;55.838;37.184;2022-08-01T10:12:42;3.00;;;1.70;;
65533;SDS011;53640;55.838;37.184;2022-08-01T10:15:09;3.83;;;1.80;;
65533;SDS011;53640;55.838;37.184;2022-08-01T10:17:37;6.28;;;1.70;;
65533;SDS011;53640;55.838;37.184;2022-08-01T10:20:05;2.67;;;1.50;;
65533;SDS011;53640;55.838;37.184;2022-08-01T10:22:33;3.67;;;1.63;;
65533;SDS011;53640;55.838;37.184;2022-08-01T10:25:02;2.55;;;1.25;;
65533;SDS011;53640;55.838;37.184;2022-08-01T10:27:32;3.80;;;1.38;;
65533;SDS011;53640;55.838;37.184;2022-08-01T10:30:02;2.63;;;1.60;;
65533;SDS011;53640;55.838;37.184;2022-08-01T10:32:32;1.80;;;1.33;;
65533;SDS011;53640;55.838;37.184;2022-08-01T10:34:59;9.20;;;1.80;;
65533;SDS011;53640;55.838;37.184;2022-08-01T10:37:26;2.92;;;1.40;;
65533;SDS011;53640;55.838;37.184;2022-08-01T10:39:53;2.80;;;1.50;;
65533;SDS011;53640;55.838;37.184;2022-08-01T10:42:21;1.40;;;1.30;;
65533;SDS011;53640;55.838;37.184;2022-08-01T10:44:48;2.05;;;1.33;;
65533;SDS011;53640;55.838;37.184;2022-08-01T10:47:40;2.13;;;1.42;;
65533;SDS011;53640;55.838;37.184;2022-08-01T10:53:09;1.27;;;1.23;;
65533;SDS011;53640;55.838;37.184;2022-08-01T10:56:12;3.28;;;1.48;;
65533;SDS011;53640;55.838;37.184;2022-08-01T10:58:34;2.47;;;1.48;;
65533;SDS011;53640;55.838;37.184;2022-08-01T11:01:16;1.40;;;1.30;;
65533;SDS011;53640;55.838;37.184;2022-08-01T11:07:13;0.98;;;0.98;;
65533;SDS011;53640;55.838;37.184;2022-08-01T11:09:23;2.00;;;1.50;;
65533;SDS011;53640;55.838;37.184;2022-08-01T11:14:25;2.90;;;1.30;;
65533;SDS011;53640;55.838;37.184;2022-08-01T11:16:51;3.72;;;1.55;;
65533;SDS011;53640;55.838;37.184;2022-08-01T11:19:18;1.98;;;1.73;;
65533;SDS011;53640;55.838;37.184;2022-08-01T11:22:05;3.70;;;1.70;;
65533;SDS011;53640;55.838;37.184;2022-08-01T11:29:41;2.78;;;2.00;;
65533;SDS011;53640;55.838;37.184;2022-08-01T11:32:23;1.88;;;1.77;;
65533;SDS011;53640;55.838;37.184;2022-08-01T11:34:54;2.35;;;1.40;;
65533;SDS011;53640;55.838;37.184;2022-08-01T11:43:16;1.65;;;1.55;;
65533;SDS011;53640;55.838;37.184;2022-08-01T11:48:18;1.00;;;1.00;;
65533;SDS011;53640;55.838;37.184;2022-08-01T11:50:46;1.60;;;1.50;;
65533;SDS011;53640;55.838;37.184;2022-08-01T11:53:13;2.45;;;1.40;;
65533;SDS011;53640;55.838;37.184;2022-08-01T11:55:47;1.75;;;1.30;;
65533;SDS011;53640;55.838;37.184;2022-08-01T11:58:17;2.05;;;1.52;;
65533;SDS011;53640;55.838;37.184;2022-08-01T12:00:52;3.22;;;1.30;;
65533;SDS011;53640;55.838;37.184;2022-08-01T12:03:25;2.00;;;1.63;;
65533;SDS011;53640;55.838;37.184;2022-08-01T12:05:56;1.90;;;1.63;;
65533;SDS011;53640;55.838;37.184;2022-08-01T12:10:53;2.28;;;1.40;;
65533;SDS011;53640;55.838;37.184;2022-08-01T12:13:19;1.70;;;1.60;;
65533;SDS011;53640;55.838;37.184;2022-08-01T12:15:46;2.58;;;1.20;;
65533;SDS011;53640;55.838;37.184;2022-08-01T12:18:13;1.58;;;1.45;;
65533;SDS011;53640;55.838;37.184;2022-08-01T12:20:40;3.42;;;1.80;;
65533;SDS011;53640;55.838;37.184;2022-08-01T12:23:11;1.33;;;1.20;;
65533;SDS011;53640;55.838;37.184;2022-08-01T12:25:39;2.08;;;1.65;;
65533;SDS011;53640;55.838;37.184;2022-08-01T12:28:07;2.30;;;1.98;;
65533;SDS011;53640;55.838;37.184;2022-08-01T12:30:35;1.52;;;1.42;;
65533;SDS011;53640;55.838;37.184;2022-08-01T12:33:04;3.35;;;2.00;;
65533;SDS011;53640;55.838;37.184;2022-08-01T12:35:32;4.20;;;1.92;;
65533;SDS011;53640;55.838;37.184;2022-08-01T12:40:35;1.80;;;1.70;;
65533;SDS011;53640;55.838;37.184;2022-08-01T12:43:03;1.90;;;1.60;;
65533;SDS011;53640;55.838;37.184;2022-08-01T12:45:39;6.00;;;2.10;;
65533;SDS011;53640;55.838;37.184;2022-08-01T12:48:09;2.30;;;2.10;;
65533;SDS011;53640;55.838;37.184;2022-08-01T12:53:10;2.05;;;1.95;;
65533;SDS011;53640;55.838;37.184;2022-08-01T12:55:49;1.60;;;1.50;;
65533;SDS011;53640;55.838;37.184;2022-08-01T12:58:17;3.97;;;1.90;;
65533;SDS011;53640;55.838;37.184;2022-08-01T13:00:46;2.45;;;1.70;;
65533;SDS011;53640;55.838;37.184;2022-08-01T13:03:15;1.88;;;1.50;;
65533;SDS011;53640;55.838;37.184;2022-08-01T13:05:49;3.40;;;1.60;;
65533;SDS011;53640;55.838;37.184;2022-08-01T13:10:46;3.00;;;1.63;;
65533;SDS011;53640;55.838;37.184;2022-08-01T13:13:14;1.58;;;1.30;;
65533;SDS011;53640;55.838;37.184;2022-08-01T13:15:42;2.05;;;1.52;;
65533;SDS011;53640;55.838;37.184;2022-08-01T13:18:24;1.45;;;1.35;;
65533;SDS011;53640;55.838;37.184;2022-08-01T13:23:38;1.95;;;1.67;;
65533;SDS011;53640;55.838;37.184;2022-08-01T13:26:05;3.03;;;1.85;;
65533;SDS011;53640;55.838;37.184;2022-08-01T13:28:31;2.72;;;1.70;;
65533;SDS011;53640;55.838;37.184;2022-08-01T13:31:00;1.23;;;1.10;;
65533;SDS011;53640;55.838;37.184;2022-08-01T13:33:50;1.70;;;1.60;;
65533;SDS011;53640;55.838;37.184;2022-08-01T13:36:15;2.35;;;1.95;;
65533;SDS011;53640;55.838;37.184;2022-08-01T13:38:42;3.40;;;1.70;;
65533;SDS011;53640;55.838;37.184;2022-08-01T13:41:27;1.40;;;1.30;;
65533;SDS011;53640;55.838;37.184;2022-08-01T13:43:53;2.58;;;1.42;;
65533;SDS011;53640;55.838;37.184;2022-08-01T13:46:20;3.47;;;2.25;;
65533;SDS011;53640;55.838;37.184;2022-08-01T13:48:47;3.22;;;2.00;;
65533;SDS011;53640;55.838;37.184;2022-08-01T13:51:13;1.73;;;1.63;;
65533;SDS011;53640;55.838;37.184;2022-08-01T13:53:39;1.40;;;1.30;;
65533;SDS011;53640;55.838;37.184;2022-08-01T13:56:05;1.48;;;1.25;;
65533;SDS011;53640;55.838;37.184;2022-08-01T13:58:32;1.42;;;1.33;;
65533;SDS011;53640;55.838;37.184;2022-08-01T14:00:58;1.10;;;1.00;;
65533;SDS011;53640;55.838;37.184;2022-08-01T14:03:25;1.50;;;1.40;;
65533;SDS011;53640;55.838;37.184;2022-08-01T14:05:51;1.17;;;1.13;;
65533;SDS011;53640;55.838;37.184;2022-08-01T14:08:17;2.30;;;1.58;;
65533;SDS011;53640;55.838;37.184;2022-08-01T14:10:44;2.88;;;1.77;;
65533;SDS011;53640;55.838;37.184;2022-08-01T14:13:10;2.05;;;1.80;;
65533;SDS011;53640;55.838;37.184;2022-08-01T14:15:36;2.92;;;1.58;;
65533;SDS011;53640;55.838;37.184;2022-08-01T14:18:02;1.80;;;1.70;;
65533;SDS011;53640;55.838;37.184;2022-08-01T14:20:29;1.50;;;1.40;;
65533;SDS011;53640;55.838;37.184;2022-08-01T14:22:55;1.30;;;1.20;;
65533;SDS011;53640;55.838;37.184;2022-08-01T14:25:21;1.33;;;1.20;;
65533;SDS011;53640;55.838;37.184;2022-08-01T14:27:48;2.97;;;1.30;;
65533;SDS011;53640;55.838;37.184;2022-08-01T14:30:14;2.60;;;0.90;;
65533;SDS011;53640;55.838;37.184;2022-08-01T14:32:40;3.20;;;1.70;;
65533;SDS011;53640;55.838;37.184;2022-08-01T14:35:07;2.92;;;1.58;;
65533;SDS011;53640;55.838;37.184;2022-08-01T14:37:34;3.72;;;1.65;;
65533;SDS011;53640;55.838;37.184;2022-08-01T14:40:00;4.18;;;1.80;;
65533;SDS011;53640;55.838;37.184;2022-08-01T14:42:30;2.83;;;1.60;;
65533;SDS011;53640;55.838;37.184;2022-08-01T14:44:56;1.45;;;1.33;;
65533;SDS011;53640;55.838;37.184;2022-08-01T14:47:23;2.95;;;1.48;;
65533;SDS011;53640;55.838;37.184;2022-08-01T14:49:49;2.13;;;1.50;;
65533;SDS011;53640;55.838;37.184;2022-08-01T14:52:16;2.30;;;1.52;;
65533;SDS011;53640;55.838;37.184;2022-08-01T14:54:43;2.15;;;1.58;;
65533;SDS011;53640;55.838;37.184;2022-08-01T14:57:09;1.98;;;1.60;;
65533;SDS011;53640;55.838;37.184;2022-08-01T14:59:35;2.13;;;1.50;;
65533;SDS011;53640;55.838;37.184;2022-08-01T15:02:02;1.88;;;1.50;;
65533;SDS011;53640;55.838;37.184;2022-08-01T15:04:28;2.42;;;1.95;;
65533;SDS011;53640;55.838;37.184;2022-08-01T15:06:56;2.83;;;1.65;;
65533;SDS011;53640;55.838;37.184;2022-08-01T15:09:22;6.07;;;2.20;;
65533;SDS011;53640;55.838;37.184;2022-08-01T15:11:49;2.70;;;1.77;;
65533;SDS011;53640;55.838;37.184;2022-08-01T15:14:15;2.65;;;1.83;;
65533;SDS011;53640;55.838;37.184;2022-08-01T15:17:00;1.48;;;1.38;;
65533;SDS011;53640;55.838;37.184;2022-08-01T15:19:27;2.00;;;1.48;;
65533;SDS011;53640;55.838;37.184;2022-08-01T15:21:53;1.85;;;1.50;;
65533;SDS011;53640;55.838;37.184;2022-08-01T15:24:19;1.55;;;1.45;;
65533;SDS011;53640;55.838;37.184;2022-08-01T15:26:46;2.35;;;1.15;;